weather.gov     
National Weather Service

Terminal Aerodrome Forecast
NWS Homepage
This page is being discontinued on March 12, 2014.
The same data is available at this site. Please update your bookmarks.
Thank you, and we apologize for the inconvenience.
Please send an email to SR-SRH.Webmaster@noaa.gov with any concerns.


Current Version
Previous Version:    01  02  03  04  05  06  07  08  09  10  11  12  13  14  15  16  17  18  19  20  21  22  23  24  25  
[Printable]
736
FTUS45 KREV 180500
TAFTRK
TAF
KTRK 180520Z 1806/1906 VRB03KT P6SM SCT050 BKN150
     FM181800 23007KT P6SM SCT050 BKN080
     FM182200 27010KT P6SM VCTS SCT040CB BKN060
     FM190300 VRB03KT P6SM SCT060
      AMD NOT SKED 1806/1812=


U.S. Dept. of Commerce
NOAA National Weather Service
1325 East West Highway
Silver Spring, MD 20910
E-mail: w-nws.webmaster@noaa.gov
Page last modified: May 16, 2007
NATIONAL WEATHER SERVICE: for Safety, for Work, for Fun - FOR LIFE